sensor_id;sensor_type;location;lat;lon;timestamp;noise_LAeq;noise_LA_min;noise_LA_max;noise_LA01;noise_LA95
67318;Laerm;57664;51.436;5.980;2024-03-29T00:01:23;38.38;32.53;48.67;;
67318;Laerm;57664;51.436;5.980;2024-03-29T00:01:35;33.68;32.65;34.65;;
67318;Laerm;57664;51.436;5.980;2024-03-29T00:07:20;33.73;32.18;35.14;;
67318;Laerm;57664;51.436;5.980;2024-03-29T00:12:09;33.81;32.36;34.94;;
67318;Laerm;57664;51.436;5.980;2024-03-29T00:46:08;33.83;32.62;34.90;;
67318;Laerm;57664;51.436;5.980;2024-03-29T00:57:10;33.68;32.48;34.80;;
67318;Laerm;57664;51.436;5.980;2024-03-29T00:57:23;33.69;32.59;34.58;;
67318;Laerm;57664;51.436;5.980;2024-03-29T00:57:36;33.72;32.64;34.73;;
67318;Laerm;57664;51.436;5.980;2024-03-29T00:57:48;33.70;32.39;34.48;;
67318;Laerm;57664;51.436;5.980;2024-03-29T00:58:01;33.70;32.50;34.72;;
67318;Laerm;57664;51.436;5.980;2024-03-29T00:58:12;33.72;32.41;34.71;;
67318;Laerm;57664;51.436;5.980;2024-03-29T00:58:22;33.75;32.69;34.63;;
67318;Laerm;57664;51.436;5.980;2024-03-29T01:01:44;33.68;32.48;35.15;;
67318;Laerm;57664;51.436;5.980;2024-03-29T01:01:59;33.66;32.33;34.66;;
67318;Laerm;57664;51.436;5.980;2024-03-29T01:02:10;33.68;32.51;34.63;;
67318;Laerm;57664;51.436;5.980;2024-03-29T01:02:20;33.66;32.70;34.66;;
67318;Laerm;57664;51.436;5.980;2024-03-29T01:02:44;33.67;32.59;34.72;;
67318;Laerm;57664;51.436;5.980;2024-03-29T01:02:58;33.68;32.49;34.85;;
67318;Laerm;57664;51.436;5.980;2024-03-29T01:03:08;33.69;32.78;34.65;;
67318;Laerm;57664;51.436;5.980;2024-03-29T01:03:20;33.71;32.51;34.60;;
67318;Laerm;57664;51.436;5.980;2024-03-29T01:03:31;33.68;32.71;34.64;;
67318;Laerm;57664;51.436;5.980;2024-03-29T01:05:56;33.76;32.34;39.31;;
67318;Laerm;57664;51.436;5.980;2024-03-29T01:06:07;33.68;32.42;34.69;;
67318;Laerm;57664;51.436;5.980;2024-03-29T01:06:36;33.68;32.49;34.70;;
67318;Laerm;57664;51.436;5.980;2024-03-29T01:06:57;33.68;32.38;34.78;;
67318;Laerm;57664;51.436;5.980;2024-03-29T01:08:06;33.69;32.12;35.09;;
67318;Laerm;57664;51.436;5.980;2024-03-29T01:08:45;33.68;32.54;34.78;;
67318;Laerm;57664;51.436;5.980;2024-03-29T01:08:56;33.72;32.82;34.66;;
67318;Laerm;57664;51.436;5.980;2024-03-29T01:09:07;33.68;32.72;34.55;;
67318;Laerm;57664;51.436;5.980;2024-03-29T01:09:29;33.72;32.45;34.67;;
67318;Laerm;57664;51.436;5.980;2024-03-29T01:13:40;33.73;32.56;34.92;;
67318;Laerm;57664;51.436;5.980;2024-03-29T01:13:50;33.76;32.65;34.61;;
67318;Laerm;57664;51.436;5.980;2024-03-29T01:14:06;33.77;32.67;34.72;;
67318;Laerm;57664;51.436;5.980;2024-03-29T01:14:33;33.75;32.69;34.63;;
67318;Laerm;57664;51.436;5.980;2024-03-29T01:14:59;33.73;32.51;34.81;;
67318;Laerm;57664;51.436;5.980;2024-03-29T01:15:11;34.04;32.75;42.42;;
67318;Laerm;57664;51.436;5.980;2024-03-29T01:15:22;33.79;32.78;36.94;;
67318;Laerm;57664;51.436;5.980;2024-03-29T01:15:33;33.70;32.51;34.97;;
67318;Laerm;57664;51.436;5.980;2024-03-29T01:15:43;33.68;32.71;34.58;;
67318;Laerm;57664;51.436;5.980;2024-03-29T01:17:12;33.71;32.32;34.93;;
67318;Laerm;57664;51.436;5.980;2024-03-29T01:17:22;33.68;32.52;34.47;;
67318;Laerm;57664;51.436;5.980;2024-03-29T01:17:46;33.74;32.90;34.60;;
67318;Laerm;57664;51.436;5.980;2024-03-29T01:17:57;33.70;32.52;34.73;;
67318;Laerm;57664;51.436;5.980;2024-03-29T01:18:11;33.71;32.71;34.57;;
67318;Laerm;57664;51.436;5.980;2024-03-29T01:18:21;33.69;32.51;34.67;;
67318;Laerm;57664;51.436;5.980;2024-03-29T01:23:43;33.71;32.52;34.90;;
67318;Laerm;57664;51.436;5.980;2024-03-29T01:23:58;33.75;32.69;35.14;;
67318;Laerm;57664;51.436;5.980;2024-03-29T01:24:10;33.69;32.37;34.68;;
67318;Laerm;57664;51.436;5.980;2024-03-29T01:24:22;33.75;32.73;34.59;;
67318;Laerm;57664;51.436;5.980;2024-03-29T01:25:44;33.75;32.61;34.80;;
67318;Laerm;57664;51.436;5.980;2024-03-29T01:26:00;33.80;32.66;34.98;;
67318;Laerm;57664;51.436;5.980;2024-03-29T01:26:10;33.79;32.80;34.67;;
67318;Laerm;57664;51.436;5.980;2024-03-29T01:27:09;33.82;32.54;35.03;;
67318;Laerm;57664;51.436;5.980;2024-03-29T01:27:19;33.83;32.97;34.75;;
67318;Laerm;57664;51.436;5.980;2024-03-29T01:28:48;33.82;32.64;35.05;;
67318;Laerm;57664;51.436;5.980;2024-03-29T01:29:00;33.81;32.66;34.97;;
67318;Laerm;57664;51.436;5.980;2024-03-29T01:29:11;33.79;32.71;34.76;;
67318;Laerm;57664;51.436;5.980;2024-03-29T01:29:21;33.79;32.64;34.97;;
67318;Laerm;57664;51.436;5.980;2024-03-29T01:29:45;33.83;32.68;35.07;;
67318;Laerm;57664;51.436;5.980;2024-03-29T01:30:00;33.83;32.68;34.84;;
67318;Laerm;57664;51.436;5.980;2024-03-29T01:30:11;33.85;32.86;34.77;;
67318;Laerm;57664;51.436;5.980;2024-03-29T01:30:23;33.83;32.83;34.79;;
67318;Laerm;57664;51.436;5.980;2024-03-29T01:30:33;33.81;32.69;34.81;;
67318;Laerm;57664;51.436;5.980;2024-03-29T01:31:49;33.81;32.77;34.95;;
67318;Laerm;57664;51.436;5.980;2024-03-29T01:32:47;33.79;32.37;34.82;;
67318;Laerm;57664;51.436;5.980;2024-03-29T01:33:18;33.83;32.76;35.08;;
67318;Laerm;57664;51.436;5.980;2024-03-29T01:33:30;33.85;32.81;35.00;;
67318;Laerm;57664;51.436;5.980;2024-03-29T01:37:01;33.87;32.76;34.86;;
67318;Laerm;57664;51.436;5.980;2024-03-29T01:37:12;33.91;32.91;34.98;;
67318;Laerm;57664;51.436;5.980;2024-03-29T01:38:04;33.91;32.72;35.07;;
67318;Laerm;57664;51.436;5.980;2024-03-29T01:38:15;33.86;32.88;34.70;;
67318;Laerm;57664;51.436;5.980;2024-03-29T01:38:28;33.88;32.71;35.05;;
67318;Laerm;57664;51.436;5.980;2024-03-29T01:39:31;33.89;32.52;35.06;;
67318;Laerm;57664;51.436;5.980;2024-03-29T01:40:54;33.86;32.63;35.06;;
67318;Laerm;57664;51.436;5.980;2024-03-29T01:41:20;33.86;32.65;35.05;;
67318;Laerm;57664;51.436;5.980;2024-03-29T01:42:19;33.85;32.72;35.06;;
67318;Laerm;57664;51.436;5.980;2024-03-29T01:44:01;33.84;32.52;35.03;;
67318;Laerm;57664;51.436;5.980;2024-03-29T01:44:11;33.81;32.92;34.74;;
67318;Laerm;57664;51.436;5.980;2024-03-29T01:44:28;33.84;32.85;34.81;;
67318;Laerm;57664;51.436;5.980;2024-03-29T01:44:38;33.85;32.79;34.76;;
67318;Laerm;57664;51.436;5.980;2024-03-29T01:44:50;33.86;32.73;34.90;;
67318;Laerm;57664;51.436;5.980;2024-03-29T01:45:59;33.85;32.56;34.95;;
67318;Laerm;57664;51.436;5.980;2024-03-29T01:46:13;33.83;32.84;34.68;;
67318;Laerm;57664;51.436;5.980;2024-03-29T01:47:36;33.86;32.66;35.05;;
67318;Laerm;57664;51.436;5.980;2024-03-29T01:47:48;33.80;32.73;34.91;;
67318;Laerm;57664;51.436;5.980;2024-03-29T01:47:59;33.85;32.77;34.84;;
67318;Laerm;57664;51.436;5.980;2024-03-29T01:49:17;33.85;32.60;34.89;;
67318;Laerm;57664;51.436;5.980;2024-03-29T01:49:29;33.85;32.90;34.80;;
67318;Laerm;57664;51.436;5.980;2024-03-29T01:49:39;33.88;32.86;34.80;;
67318;Laerm;57664;51.436;5.980;2024-03-29T01:49:53;33.88;32.88;35.00;;
67318;Laerm;57664;51.436;5.980;2024-03-29T01:50:04;33.90;32.78;34.84;;
67318;Laerm;57664;51.436;5.980;2024-03-29T01:50:56;33.87;32.76;34.97;;
67318;Laerm;57664;51.436;5.980;2024-03-29T01:51:09;33.85;32.82;34.82;;
67318;Laerm;57664;51.436;5.980;2024-03-29T01:52:13;33.89;32.64;35.08;;
67318;Laerm;57664;51.436;5.980;2024-03-29T01:52:26;33.87;32.66;34.98;;
67318;Laerm;57664;51.436;5.980;2024-03-29T01:52:38;33.89;32.78;34.97;;
67318;Laerm;57664;51.436;5.980;2024-03-29T01:52:53;33.84;32.66;35.00;;
67318;Laerm;57664;51.436;5.980;2024-03-29T01:53:05;33.89;32.52;34.88;;
67318;Laerm;57664;51.436;5.980;2024-03-29T01:54:32;33.87;32.53;34.95;;
67318;Laerm;57664;51.436;5.980;2024-03-29T01:54:49;33.86;32.58;35.02;;
67318;Laerm;57664;51.436;5.980;2024-03-29T01:55:02;33.87;32.85;35.14;;
67318;Laerm;57664;51.436;5.980;2024-03-29T01:55:12;33.85;32.50;34.77;;
67318;Laerm;57664;51.436;5.980;2024-03-29T01:55:23;33.88;32.98;34.91;;
67318;Laerm;57664;51.436;5.980;2024-03-29T01:56:35;33.90;32.68;35.19;;
67318;Laerm;57664;51.436;5.980;2024-03-29T01:56:46;33.93;32.84;35.14;;
67318;Laerm;57664;51.436;5.980;2024-03-29T01:56:57;33.93;32.69;34.81;;
67318;Laerm;57664;51.436;5.980;2024-03-29T01:57:08;33.89;32.96;34.95;;
67318;Laerm;57664;51.436;5.980;2024-03-29T02:00:33;33.89;32.68;35.11;;
67318;Laerm;57664;51.436;5.980;2024-03-29T02:00:59;33.92;32.89;34.97;;
67318;Laerm;57664;51.436;5.980;2024-03-29T02:01:26;33.90;32.78;34.84;;
67318;Laerm;57664;51.436;5.980;2024-03-29T02:01:39;33.89;32.72;34.94;;
67318;Laerm;57664;51.436;5.980;2024-03-29T02:01:52;33.94;32.79;34.91;;
67318;Laerm;57664;51.436;5.980;2024-03-29T02:02:03;33.90;32.82;34.87;;
67318;Laerm;57664;51.436;5.980;2024-03-29T02:03:22;33.95;32.72;37.18;;
67318;Laerm;57664;51.436;5.980;2024-03-29T02:03:33;33.90;32.87;34.86;;
67318;Laerm;57664;51.436;5.980;2024-03-29T02:03:45;33.91;32.90;34.77;;
67318;Laerm;57664;51.436;5.980;2024-03-29T02:03:56;33.92;32.84;35.01;;
67318;Laerm;57664;51.436;5.980;2024-03-29T02:04:26;33.96;33.05;34.97;;
67318;Laerm;57664;51.436;5.980;2024-03-29T02:04:37;33.94;32.79;35.04;;
67318;Laerm;57664;51.436;5.980;2024-03-29T02:04:48;33.94;32.86;34.97;;
67318;Laerm;57664;51.436;5.980;2024-03-29T02:04:59;33.94;32.93;34.94;;
67318;Laerm;57664;51.436;5.980;2024-03-29T02:05:10;33.96;32.89;34.90;;
67318;Laerm;57664;51.436;5.980;2024-03-29T02:05:20;33.92;32.86;34.84;;
67318;Laerm;57664;51.436;5.980;2024-03-29T02:05:31;33.91;33.02;34.76;;
67318;Laerm;57664;51.436;5.980;2024-03-29T02:06:20;33.94;32.78;34.87;;
67318;Laerm;57664;51.436;5.980;2024-03-29T02:06:31;33.96;32.84;34.80;;
67318;Laerm;57664;51.436;5.980;2024-03-29T02:07:25;33.93;32.64;36.15;;
67318;Laerm;57664;51.436;5.980;2024-03-29T02:07:38;33.90;32.78;34.96;;
67318;Laerm;57664;51.436;5.980;2024-03-29T02:07:49;33.92;32.85;34.77;;
67318;Laerm;57664;51.436;5.980;2024-03-29T02:09:07;33.90;32.37;35.02;;
67318;Laerm;57664;51.436;5.980;2024-03-29T02:09:18;33.94;32.88;35.88;;
67318;Laerm;57664;51.436;5.980;2024-03-29T02:09:29;33.88;32.87;34.65;;
67318;Laerm;57664;51.436;5.980;2024-03-29T02:10:12;33.91;32.62;35.08;;
67318;Laerm;57664;51.436;5.980;2024-03-29T02:10:25;33.85;32.64;35.01;;
67318;Laerm;57664;51.436;5.980;2024-03-29T02:10:39;33.90;32.82;34.86;;
67318;Laerm;57664;51.436;5.980;2024-03-29T02:11:02;33.85;32.96;34.82;;
67318;Laerm;57664;51.436;5.980;2024-03-29T02:11:14;33.87;32.89;35.10;;
67318;Laerm;57664;51.436;5.980;2024-03-29T02:11:26;33.85;32.83;34.67;;
67318;Laerm;57664;51.436;5.980;2024-03-29T02:11:40;33.83;32.71;34.74;;
67318;Laerm;57664;51.436;5.980;2024-03-29T02:12:47;33.91;32.59;41.27;;
67318;Laerm;57664;51.436;5.980;2024-03-29T02:12:59;33.86;32.85;34.72;;
67318;Laerm;57664;51.436;5.980;2024-03-29T02:14:19;33.80;32.54;34.93;;
67318;Laerm;57664;51.436;5.980;2024-03-29T02:14:31;33.79;32.52;35.07;;
67318;Laerm;57664;51.436;5.980;2024-03-29T02:14:41;33.77;32.67;34.69;;
67318;Laerm;57664;51.436;5.980;2024-03-29T02:14:52;33.81;33.00;34.77;;
67318;Laerm;57664;51.436;5.980;2024-03-29T02:15:03;33.80;32.85;34.79;;
67318;Laerm;57664;51.436;5.980;2024-03-29T02:15:17;33.76;32.65;34.82;;
67318;Laerm;57664;51.436;5.980;2024-03-29T02:16:24;33.77;32.06;34.96;;
67318;Laerm;57664;51.436;5.980;2024-03-29T02:16:34;33.77;32.86;35.05;;
67318;Laerm;57664;51.436;5.980;2024-03-29T02:16:58;33.78;32.65;34.97;;
67318;Laerm;57664;51.436;5.980;2024-03-29T02:17:10;33.78;32.67;34.90;;
67318;Laerm;57664;51.436;5.980;2024-03-29T02:17:20;33.80;32.74;34.93;;
67318;Laerm;57664;51.436;5.980;2024-03-29T02:17:51;33.79;32.88;34.87;;
67318;Laerm;57664;51.436;5.980;2024-03-29T02:18:12;33.78;32.52;34.88;;
67318;Laerm;57664;51.436;5.980;2024-03-29T02:22:29;33.81;32.35;34.82;;
67318;Laerm;57664;51.436;5.980;2024-03-29T02:22:45;33.82;32.88;34.88;;
67318;Laerm;57664;51.436;5.980;2024-03-29T02:23:11;33.83;32.71;35.12;;
67318;Laerm;57664;51.436;5.980;2024-03-29T02:23:29;33.78;32.54;34.85;;
67318;Laerm;57664;51.436;5.980;2024-03-29T02:26:07;33.80;32.57;35.11;;
67318;Laerm;57664;51.436;5.980;2024-03-29T02:28:44;33.77;32.23;35.04;;
67318;Laerm;57664;51.436;5.980;2024-03-29T02:28:58;33.84;32.47;42.20;;
67318;Laerm;57664;51.436;5.980;2024-03-29T02:29:10;33.80;32.68;34.83;;
67318;Laerm;57664;51.436;5.980;2024-03-29T02:33:28;33.77;32.62;35.09;;
67318;Laerm;57664;51.436;5.980;2024-03-29T02:33:47;33.74;32.66;35.10;;
67318;Laerm;57664;51.436;5.980;2024-03-29T02:37:48;33.76;32.35;35.09;;
67318;Laerm;57664;51.436;5.980;2024-03-29T02:38:03;33.77;32.67;34.94;;
67318;Laerm;57664;51.436;5.980;2024-03-29T02:39:50;33.79;32.74;34.94;;
67318;Laerm;57664;51.436;5.980;2024-03-29T02:40:04;33.77;32.65;34.85;;
67318;Laerm;57664;51.436;5.980;2024-03-29T02:40:16;33.88;32.81;39.44;;
67318;Laerm;57664;51.436;5.980;2024-03-29T02:40:51;33.78;32.31;34.88;;
67318;Laerm;57664;51.436;5.980;2024-03-29T02:41:20;33.74;32.52;34.87;;
67318;Laerm;57664;51.436;5.980;2024-03-29T02:41:43;33.75;32.37;34.86;;
67318;Laerm;57664;51.436;5.980;2024-03-29T02:43:03;33.74;32.56;34.85;;
67318;Laerm;57664;51.436;5.980;2024-03-29T02:43:31;33.76;32.62;35.09;;
67318;Laerm;57664;51.436;5.980;2024-03-29T02:44:18;33.67;32.40;34.92;;
67318;Laerm;57664;51.436;5.980;2024-03-29T02:44:36;33.69;32.58;34.76;;
67318;Laerm;57664;51.436;5.980;2024-03-29T02:49:43;33.77;32.55;39.34;;
67318;Laerm;57664;51.436;5.980;2024-03-29T02:49:57;33.92;32.70;34.99;;
67318;Laerm;57664;51.436;5.980;2024-03-29T02:51:18;37.07;32.59;47.48;;
67318;Laerm;57664;51.436;5.980;2024-03-29T02:51:35;33.97;32.95;34.85;;
67318;Laerm;57664;51.436;5.980;2024-03-29T02:51:51;34.04;32.78;34.98;;
67318;Laerm;57664;51.436;5.980;2024-03-29T02:54:09;34.26;33.08;35.33;;
67318;Laerm;57664;51.436;5.980;2024-03-29T03:05:16;34.72;33.34;35.85;;
67318;Laerm;57664;51.436;5.980;2024-03-29T03:05:27;34.71;33.38;35.96;;
67318;Laerm;57664;51.436;5.980;2024-03-29T03:05:37;34.77;33.79;36.22;;
67318;Laerm;57664;51.436;5.980;2024-03-29T03:10:33;34.79;33.35;40.55;;
67318;Laerm;57664;51.436;5.980;2024-03-29T03:12:49;35.25;33.51;37.83;;
67318;Laerm;57664;51.436;5.980;2024-03-29T03:13:00;35.37;33.88;40.12;;
67318;Laerm;57664;51.436;5.980;2024-03-29T03:13:10;35.33;34.06;38.21;;
67318;Laerm;57664;51.436;5.980;2024-03-29T03:13:20;35.35;34.02;38.72;;
67318;Laerm;57664;51.436;5.980;2024-03-29T03:13:45;35.25;33.86;37.80;;
67318;Laerm;57664;51.436;5.980;2024-03-29T03:13:55;35.13;33.30;37.75;;
67318;Laerm;57664;51.436;5.980;2024-03-29T03:14:06;35.05;33.84;36.82;;
67318;Laerm;57664;51.436;5.980;2024-03-29T03:14:17;35.20;34.14;37.77;;
67318;Laerm;57664;51.436;5.980;2024-03-29T03:14:27;35.23;33.90;37.57;;
67318;Laerm;57664;51.436;5.980;2024-03-29T03:14:37;35.27;34.05;38.03;;
67318;Laerm;57664;51.436;5.980;2024-03-29T03:14:48;35.37;33.85;39.74;;
67318;Laerm;57664;51.436;5.980;2024-03-29T03:14:59;35.87;34.06;50.95;;
67318;Laerm;57664;51.436;5.980;2024-03-29T03:15:10;34.89;33.84;35.91;;
67318;Laerm;57664;51.436;5.980;2024-03-29T03:15:38;34.84;33.83;35.81;;
67318;Laerm;57664;51.436;5.980;2024-03-29T03:15:50;34.90;33.80;36.23;;
67318;Laerm;57664;51.436;5.980;2024-03-29T03:16:01;34.94;33.92;36.18;;
67318;Laerm;57664;51.436;5.980;2024-03-29T03:16:17;34.93;33.94;37.32;;
67318;Laerm;57664;51.436;5.980;2024-03-29T03:16:37;34.91;33.73;41.04;;
67318;Laerm;57664;51.436;5.980;2024-03-29T03:16:48;34.89;33.87;35.63;;
67318;Laerm;57664;51.436;5.980;2024-03-29T03:17:47;34.93;33.68;37.59;;
67318;Laerm;57664;51.436;5.980;2024-03-29T03:17:57;34.98;34.03;36.20;;
67318;Laerm;57664;51.436;5.980;2024-03-29T03:18:26;35.04;33.73;43.99;;
67318;Laerm;57664;51.436;5.980;2024-03-29T03:18:39;34.94;33.70;36.19;;
67318;Laerm;57664;51.436;5.980;2024-03-29T03:18:50;34.89;33.73;36.23;;
67318;Laerm;57664;51.436;5.980;2024-03-29T03:20:10;34.85;33.63;35.98;;
67318;Laerm;57664;51.436;5.980;2024-03-29T03:20:26;34.79;33.71;36.12;;
67318;Laerm;57664;51.436;5.980;2024-03-29T03:20:50;34.76;33.45;35.94;;
67318;Laerm;57664;51.436;5.980;2024-03-29T03:21:01;34.77;33.65;36.04;;
67318;Laerm;57664;51.436;5.980;2024-03-29T03:21:27;34.80;33.78;38.39;;
67318;Laerm;57664;51.436;5.980;2024-03-29T03:21:41;34.83;33.76;35.77;;
67318;Laerm;57664;51.436;5.980;2024-03-29T03:21:52;34.83;33.77;36.13;;
67318;Laerm;57664;51.436;5.980;2024-03-29T03:22:19;34.86;33.84;35.76;;
67318;Laerm;57664;51.436;5.980;2024-03-29T03:22:30;34.85;33.57;35.83;;
67318;Laerm;57664;51.436;5.980;2024-03-29T03:22:40;34.90;33.96;35.81;;
67318;Laerm;57664;51.436;5.980;2024-03-29T03:22:51;34.86;33.97;35.84;;
67318;Laerm;57664;51.436;5.980;2024-03-29T03:24:18;34.88;33.67;36.12;;
67318;Laerm;57664;51.436;5.980;2024-03-29T03:24:28;34.89;33.65;35.87;;
67318;Laerm;57664;51.436;5.980;2024-03-29T03:24:38;34.97;33.85;42.61;;
67318;Laerm;57664;51.436;5.980;2024-03-29T03:24:49;34.87;33.89;36.02;;
67318;Laerm;57664;51.436;5.980;2024-03-29T03:25:00;34.85;33.77;35.79;;
67318;Laerm;57664;51.436;5.980;2024-03-29T03:25:10;34.84;33.93;35.74;;
67318;Laerm;57664;51.436;5.980;2024-03-29T03:25:20;34.86;33.93;35.84;;
67318;Laerm;57664;51.436;5.980;2024-03-29T03:26:13;34.84;33.53;35.93;;
67318;Laerm;57664;51.436;5.980;2024-03-29T03:26:32;34.85;33.46;35.99;;
67318;Laerm;57664;51.436;5.980;2024-03-29T03:26:50;34.87;33.82;35.78;;
67318;Laerm;57664;51.436;5.980;2024-03-29T03:27:01;34.86;33.83;35.97;;
67318;Laerm;57664;51.436;5.980;2024-03-29T03:27:11;34.87;33.46;35.88;;
67318;Laerm;57664;51.436;5.980;2024-03-29T03:27:21;34.90;33.71;35.84;;
67318;Laerm;57664;51.436;5.980;2024-03-29T03:27:40;34.89;33.70;35.81;;
67318;Laerm;57664;51.436;5.980;2024-03-29T03:27:54;34.85;33.81;35.89;;
67318;Laerm;57664;51.436;5.980;2024-03-29T03:28:08;34.83;33.63;35.76;;
67318;Laerm;57664;51.436;5.980;2024-03-29T03:29:14;34.82;33.60;39.59;;
67318;Laerm;57664;51.436;5.980;2024-03-29T03:29:24;34.81;33.63;35.99;;
67318;Laerm;57664;51.436;5.980;2024-03-29T03:31:01;34.84;33.56;40.08;;
67318;Laerm;57664;51.436;5.980;2024-03-29T03:31:43;34.83;33.70;40.90;;
67318;Laerm;57664;51.436;5.980;2024-03-29T03:31:57;34.84;33.69;36.33;;
67318;Laerm;57664;51.436;5.980;2024-03-29T03:32:13;34.81;33.75;36.22;;
67318;Laerm;57664;51.436;5.980;2024-03-29T03:32:24;34.83;33.74;36.46;;
67318;Laerm;57664;51.436;5.980;2024-03-29T03:32:35;34.79;33.60;36.01;;
67318;Laerm;57664;51.436;5.980;2024-03-29T03:32:47;34.91;33.57;44.24;;
67318;Laerm;57664;51.436;5.980;2024-03-29T03:32:58;34.80;33.61;36.45;;
67318;Laerm;57664;51.436;5.980;2024-03-29T03:33:08;34.82;33.55;35.86;;
67318;Laerm;57664;51.436;5.980;2024-03-29T03:33:19;34.80;33.62;35.85;;
67318;Laerm;57664;51.436;5.980;2024-03-29T03:33:29;34.80;33.79;35.73;;
67318;Laerm;57664;51.436;5.980;2024-03-29T03:33:40;34.85;33.80;35.79;;
67318;Laerm;57664;51.436;5.980;2024-03-29T03:33:52;34.80;33.73;35.68;;
67318;Laerm;57664;51.436;5.980;2024-03-29T03:34:03;34.80;33.78;36.09;;
67318;Laerm;57664;51.436;5.980;2024-03-29T03:34:13;34.79;33.71;35.85;;
67318;Laerm;57664;51.436;5.980;2024-03-29T03:34:26;34.77;33.69;35.60;;
67318;Laerm;57664;51.436;5.980;2024-03-29T03:34:37;34.73;33.69;37.61;;
67318;Laerm;57664;51.436;5.980;2024-03-29T03:34:47;34.74;33.57;35.77;;
67318;Laerm;57664;51.436;5.980;2024-03-29T03:35:35;34.78;33.54;42.58;;
67318;Laerm;57664;51.436;5.980;2024-03-29T03:35:49;34.78;33.76;37.82;;
67318;Laerm;57664;51.436;5.980;2024-03-29T03:36:00;34.74;33.57;35.71;;
67318;Laerm;57664;51.436;5.980;2024-03-29T03:36:10;36.21;33.80;47.82;;
67318;Laerm;57664;51.436;5.980;2024-03-29T03:36:27;34.79;33.64;40.55;;
67318;Laerm;57664;51.436;5.980;2024-03-29T03:36:37;34.79;33.45;37.84;;
67318;Laerm;57664;51.436;5.980;2024-03-29T03:36:48;34.74;33.60;36.46;;
67318;Laerm;57664;51.436;5.980;2024-03-29T03:36:58;34.71;33.78;35.67;;
67318;Laerm;57664;51.436;5.980;2024-03-29T03:37:13;35.05;33.34;37.74;;
67318;Laerm;57664;51.436;5.980;2024-03-29T03:37:24;35.12;33.87;39.86;;
67318;Laerm;57664;51.436;5.980;2024-03-29T03:37:41;34.90;33.84;37.58;;
67318;Laerm;57664;51.436;5.980;2024-03-29T03:38:03;34.95;34.00;37.50;;
67318;Laerm;57664;51.436;5.980;2024-03-29T03:38:18;43.91;34.01;58.37;;
67318;Laerm;57664;51.436;5.980;2024-03-29T03:38:30;41.77;34.12;48.58;;
67318;Laerm;57664;51.436;5.980;2024-03-29T03:38:54;35.43;33.64;47.98;;
67318;Laerm;57664;51.436;5.980;2024-03-29T03:39:06;35.35;33.78;42.88;;
67318;Laerm;57664;51.436;5.980;2024-03-29T03:39:24;35.96;33.81;52.40;;
67318;Laerm;57664;51.436;5.980;2024-03-29T03:39:49;35.00;34.04;37.45;;
67318;Laerm;57664;51.436;5.980;2024-03-29T03:40:09;35.92;33.79;58.40;;
67318;Laerm;57664;51.436;5.980;2024-03-29T03:40:20;35.05;34.11;36.64;;
67318;Laerm;57664;51.436;5.980;2024-03-29T03:40:32;34.98;34.00;36.00;;
67318;Laerm;57664;51.436;5.980;2024-03-29T03:40:42;36.07;33.94;52.78;;
67318;Laerm;57664;51.436;5.980;2024-03-29T03:40:57;37.51;34.01;60.22;;
67318;Laerm;57664;51.436;5.980;2024-03-29T03:41:19;65.91;33.65;93.96;;
67318;Laerm;57664;51.436;5.980;2024-03-29T03:41:29;36.52;33.68;44.87;;
67318;Laerm;57664;51.436;5.980;2024-03-29T03:41:40;36.60;34.16;48.51;;
67318;Laerm;57664;51.436;5.980;2024-03-29T03:41:50;36.32;34.31;50.97;;
67318;Laerm;57664;51.436;5.980;2024-03-29T03:42:01;35.11;33.71;44.22;;
67318;Laerm;57664;51.436;5.980;2024-03-29T03:42:12;36.33;33.52;53.54;;
67318;Laerm;57664;51.436;5.980;2024-03-29T03:42:22;37.08;33.84;54.75;;
67318;Laerm;57664;51.436;5.980;2024-03-29T03:42:33;35.91;33.72;42.62;;
67318;Laerm;57664;51.436;5.980;2024-03-29T03:42:56;56.51;33.61;79.67;;
67318;Laerm;57664;51.436;5.980;2024-03-29T03:43:08;39.36;32.96;66.01;;
67318;Laerm;57664;51.436;5.980;2024-03-29T03:43:20;34.42;33.35;35.48;;
67318;Laerm;57664;51.436;5.980;2024-03-29T03:43:43;34.45;33.38;39.38;;
67318;Laerm;57664;51.436;5.980;2024-03-29T03:43:54;34.26;33.20;37.82;;
67318;Laerm;57664;51.436;5.980;2024-03-29T03:44:09;36.82;32.96;59.29;;
67318;Laerm;57664;51.436;5.980;2024-03-29T03:44:21;34.12;32.93;36.75;;
67318;Laerm;57664;51.436;5.980;2024-03-29T03:44:34;35.87;33.25;56.98;;
67318;Laerm;57664;51.436;5.980;2024-03-29T03:45:03;34.51;33.20;48.37;;
67318;Laerm;57664;51.436;5.980;2024-03-29T03:45:14;50.01;33.03;79.07;;
67318;Laerm;57664;51.436;5.980;2024-03-29T03:45:25;36.62;33.36;57.20;;
67318;Laerm;57664;51.436;5.980;2024-03-29T03:45:43;34.32;33.33;36.49;;
67318;Laerm;57664;51.436;5.980;2024-03-29T03:46:05;34.85;33.30;52.95;;
67318;Laerm;57664;51.436;5.980;2024-03-29T03:46:24;34.42;32.90;45.89;;
67318;Laerm;57664;51.436;5.980;2024-03-29T03:46:36;34.13;32.86;36.30;;
67318;Laerm;57664;51.436;5.980;2024-03-29T03:46:46;34.09;33.14;35.00;;
67318;Laerm;57664;51.436;5.980;2024-03-29T03:46:57;34.22;33.17;36.61;;
67318;Laerm;57664;51.436;5.980;2024-03-29T03:47:08;34.39;32.60;47.62;;
67318;Laerm;57664;51.436;5.980;2024-03-29T03:47:23;34.11;33.03;38.57;;
67318;Laerm;57664;51.436;5.980;2024-03-29T03:47:36;33.94;32.82;36.40;;
67318;Laerm;57664;51.436;5.980;2024-03-29T03:47:47;33.86;32.64;34.87;;
67318;Laerm;57664;51.436;5.980;2024-03-29T03:48:20;36.72;32.97;59.71;;
67318;Laerm;57664;51.436;5.980;2024-03-29T03:48:30;33.92;32.83;34.94;;
67318;Laerm;57664;51.436;5.980;2024-03-29T03:48:42;34.93;32.79;53.48;;
67318;Laerm;57664;51.436;5.980;2024-03-29T03:48:55;34.09;32.93;43.92;;
67318;Laerm;57664;51.436;5.980;2024-03-29T03:49:06;33.99;32.31;36.78;;
67318;Laerm;57664;51.436;5.980;2024-03-29T03:49:19;33.91;32.74;35.10;;
67318;Laerm;57664;51.436;5.980;2024-03-29T03:49:31;33.91;32.71;36.24;;
67318;Laerm;57664;51.436;5.980;2024-03-29T03:49:41;42.47;32.51;66.57;;
67318;Laerm;57664;51.436;5.980;2024-03-29T03:49:53;53.04;32.83;78.23;;
67318;Laerm;57664;51.436;5.980;2024-03-29T03:50:03;33.73;32.61;36.90;;
67318;Laerm;57664;51.436;5.980;2024-03-29T03:50:18;37.63;32.83;61.12;;
67318;Laerm;57664;51.436;5.980;2024-03-29T03:50:29;57.48;32.78;82.48;;
67318;Laerm;57664;51.436;5.980;2024-03-29T03:50:40;34.39;32.83;50.80;;
67318;Laerm;57664;51.436;5.980;2024-03-29T03:50:51;33.70;32.61;34.90;;
67318;Laerm;57664;51.436;5.980;2024-03-29T03:51:06;42.98;32.75;64.98;;
67318;Laerm;57664;51.436;5.980;2024-03-29T03:51:17;33.85;32.99;34.75;;
67318;Laerm;57664;51.436;5.980;2024-03-29T03:51:32;33.79;32.86;35.75;;
67318;Laerm;57664;51.436;5.980;2024-03-29T03:51:42;33.68;32.33;34.81;;
67318;Laerm;57664;51.436;5.980;2024-03-29T03:51:56;33.69;32.72;34.67;;
67318;Laerm;57664;51.436;5.980;2024-03-29T03:52:09;33.67;32.45;34.74;;
67318;Laerm;57664;51.436;5.980;2024-03-29T03:52:28;33.65;32.38;34.97;;
67318;Laerm;57664;51.436;5.980;2024-03-29T03:52:39;33.64;32.45;34.66;;
67318;Laerm;57664;51.436;5.980;2024-03-29T03:52:52;42.43;32.35;67.41;;
67318;Laerm;57664;51.436;5.980;2024-03-29T03:53:04;33.67;32.64;34.54;;
67318;Laerm;57664;51.436;5.980;2024-03-29T03:53:15;33.65;32.50;34.71;;
67318;Laerm;57664;51.436;5.980;2024-03-29T03:53:26;33.60;32.54;34.63;;
67318;Laerm;57664;51.436;5.980;2024-03-29T03:53:36;33.56;32.34;34.48;;